Airfield :
LOGIN :

Register | Disclaimer

   EN    FR    IT 

 










Legend :    VFR   Marginal VFR   IFR   Intensive IFR   Very Intensive IFR
Visi :
Ceiling :
>= 8 km
>= 3000ft
5 to 8 km
1000 to 3000 ft
1500m to 5 km
500 to 1000 ft
800 to 1500m
200 to 500 ft
< 800m
< 200 ft
Symbols :   Thunderstorms  Fog  Heavy snow  Heavy precipitations  Wind > 20 kt
SIGMETs :     Misc.  Thunderstorms  Icing  Turbulence  Mountain Waves  Volcanic Ashes







- Airport Elevation : 14 ft
- IATA code : BRE


EDDW - Bremen Neuenland

CURRENT METAR :
  • 191250Z 31009KT 280V350 9999 SCT048 17/04 Q1029 NOSIG

EXPIRED METARs :
  • 191220Z 31010KT 270V020 9999 SCT048 17/05 Q1029 NOSIG
  • 191150Z 31012KT 9999 SCT046 16/04 Q1030 NOSIG
  • 191120Z 31009KT 280V010 9999 SCT044 15/05 Q1030 NOSIG
  • 191050Z 30011KT 9999 SCT042 16/05 Q1030 NOSIG
  • 191020Z 31011KT 9999 SCT039 14/05 Q1030 NOSIG

TAF TAF EDDW
Valid from the 19 at 12:00 until the 20 at 12:00 UTC


191100Z 1912/2012 30010KT 9999 SCT040
BECMG 1916/1919 24003KT
BECMG 2009/2012 25010KT
No reported NOTAMs for that airfield.



MET'MAP, your aeronautical weather chart ! - Copyright ORBIFLY December 2007 - Disclaimer

ORBIFLY MET'MAP TEAM :

Programming & Development : Alexandra Zaïnal
Concept & Development : Baudouin d'Aumeries
Co-Development & Prog : Marc-Olivier Méhu
Technical & hardware support : Manuel Goepfert

Contact : metmap@orbifly.com




SOURCES & CREDITS :

   NOAA